createdAt,value
2023-04-18T00:01:29.271Z,97950.81
2023-04-18T00:04:34.290Z,97955.44
2023-04-18T00:07:37.248Z,97952.00
2023-04-18T00:10:39.960Z,97960.34
2023-04-18T00:13:42.879Z,97952.28
2023-04-18T00:16:47.187Z,97949.59
2023-04-18T00:19:50.104Z,97946.16
2023-04-18T00:22:53.625Z,97953.03
2023-04-18T00:25:56.580Z,97948.44
2023-04-18T00:28:59.219Z,97952.78
2023-04-18T00:32:01.932Z,97950.16
2023-04-18T00:35:07.260Z,97951.00
2023-04-18T00:38:10.019Z,97963.38
2023-04-18T00:41:12.629Z,97956.31
2023-04-18T00:44:15.784Z,97956.69
2023-04-18T00:47:21.704Z,97950.78
2023-04-18T00:50:24.876Z,97946.94
2023-04-18T00:53:27.745Z,97953.91
2023-04-18T00:56:30.851Z,97947.84
2023-04-18T00:59:36.165Z,97950.78
2023-04-18T01:02:40.183Z,97951.50
2023-04-18T01:05:43.131Z,97949.88
2023-04-18T01:08:46.153Z,97954.31
2023-04-18T01:11:48.785Z,97960.38
2023-04-18T01:14:52.276Z,97962.31
2023-04-18T01:17:55.854Z,97959.84
2023-04-18T01:21:00.906Z,97957.44
2023-04-18T01:24:15.524Z,97955.72
2023-04-18T01:27:18.604Z,97952.09
2023-04-18T01:30:21.338Z,97956.63
2023-04-18T01:33:23.983Z,97943.97
2023-04-18T01:36:27.508Z,97944.47
2023-04-18T01:39:30.363Z,97943.13
2023-04-18T01:42:33.007Z,97945.34
2023-04-18T01:45:35.717Z,97936.22
2023-04-18T01:48:38.348Z,97933.03
2023-04-18T01:51:41.429Z,97934.16
2023-04-18T01:54:44.032Z,97938.72
2023-04-18T01:57:48.353Z,97936.47
2023-04-18T02:00:52.916Z,97935.78
2023-04-18T02:03:57.327Z,97940.50
2023-04-18T02:07:00.783Z,97943.34
2023-04-18T02:10:03.849Z,97940.34
2023-04-18T02:13:07.390Z,97943.41
2023-04-18T02:16:14.022Z,97955.53
2023-04-18T02:19:19.250Z,97953.91
2023-04-18T02:22:22.041Z,97951.97
2023-04-18T02:25:27.269Z,97955.16
2023-04-18T02:28:29.917Z,97957.41
2023-04-18T02:31:33.287Z,97951.88
2023-04-18T02:34:36.945Z,97957.31
2023-04-18T02:37:39.689Z,97957.91
2023-04-18T02:40:42.507Z,97960.53
2023-04-18T02:43:45.894Z,97957.91
2023-04-18T02:46:51.205Z,97957.59
2023-04-18T02:49:54.069Z,97968.72
2023-04-18T02:52:57.429Z,97963.06
2023-04-18T02:56:09.146Z,97965.13
2023-04-18T02:59:30.276Z,97969.66
2023-04-18T03:02:53.593Z,97965.13
2023-04-18T03:06:11.505Z,97966.97
2023-04-18T03:09:14.955Z,97967.44
2023-04-18T03:12:22.473Z,97963.88
2023-04-18T03:15:25.277Z,97962.72
2023-04-18T03:18:29.144Z,97970.47
2023-04-18T03:21:34.381Z,97970.75
2023-04-18T03:24:37.297Z,97962.06
2023-04-18T03:27:43.514Z,97962.91
2023-04-18T03:30:48.779Z,97964.47
2023-04-18T03:33:52.149Z,97959.50
2023-04-18T03:36:56.866Z,97960.03
2023-04-18T03:40:00.588Z,97959.75
2023-04-18T03:43:05.905Z,97963.97
2023-04-18T03:46:08.947Z,97967.25
2023-04-18T03:49:13.145Z,97953.78
2023-04-18T03:52:16.556Z,97970.56
2023-04-18T03:55:22.724Z,97969.47
2023-04-18T03:58:26.520Z,97971.63
2023-04-18T04:01:30.429Z,97971.88
2023-04-18T04:04:33.302Z,97967.59
2023-04-18T04:07:36.342Z,97970.00
2023-04-18T04:10:39.604Z,97976.34
2023-04-18T04:13:42.678Z,97985.44
2023-04-18T04:16:47.971Z,97987.31
2023-04-18T04:19:52.983Z,97991.44
2023-04-18T04:22:59.237Z,97993.25
2023-04-18T04:26:04.928Z,97990.81
2023-04-18T04:29:24.136Z,97992.00
2023-04-18T04:32:28.986Z,97993.44
2023-04-18T04:35:32.515Z,97998.28
2023-04-18T04:38:38.765Z,98000.00
2023-04-18T04:41:42.239Z,98005.44
2023-04-18T04:44:46.964Z,98002.50
2023-04-18T04:47:51.470Z,98004.47
2023-04-18T04:50:58.388Z,98000.00
2023-04-18T04:54:02.313Z,98000.13
2023-04-18T04:57:05.771Z,98008.66
2023-04-18T05:00:09.463Z,98001.75
2023-04-18T05:03:13.060Z,98010.31
2023-04-18T05:06:20.828Z,98006.38
2023-04-18T05:09:23.695Z,97993.25
2023-04-18T05:12:27.224Z,98001.31
2023-04-18T05:15:31.553Z,98009.75
2023-04-18T05:18:35.120Z,97999.53
2023-04-18T05:21:38.076Z,97997.53
2023-04-18T05:24:41.879Z,98005.13
2023-04-18T05:27:45.964Z,98008.09
2023-04-18T05:30:48.692Z,98014.69
2023-04-18T05:33:51.665Z,98019.94
2023-04-18T05:36:57.021Z,98020.00
2023-04-18T05:40:00.970Z,98013.91
2023-04-18T05:43:04.531Z,98019.06
2023-04-18T05:46:07.403Z,98026.03
2023-04-18T05:49:10.269Z,98024.59
2023-04-18T05:52:13.051Z,98031.91
2023-04-18T05:55:15.994Z,98043.91
2023-04-18T05:58:18.723Z,98033.47
2023-04-18T06:01:21.964Z,98031.72
2023-04-18T06:04:24.848Z,98030.28
2023-04-18T06:07:27.741Z,98031.91
2023-04-18T06:10:30.611Z,98035.03
2023-04-18T06:13:33.495Z,98035.03
2023-04-18T06:16:39.391Z,98034.09
2023-04-18T06:19:42.243Z,98029.22
2023-04-18T06:22:45.104Z,98036.94
2023-04-18T06:25:47.919Z,98041.38
2023-04-18T06:28:50.680Z,98048.41
2023-04-18T06:31:56.373Z,98047.31
2023-04-18T06:34:59.157Z,98041.59
2023-04-18T06:38:01.947Z,98055.28
2023-04-18T06:41:04.912Z,98049.72
2023-04-18T06:44:09.752Z,98050.88
2023-04-18T06:47:12.757Z,98051.06
2023-04-18T06:50:16.778Z,98061.44
2023-04-18T06:53:19.744Z,98058.66
2023-04-18T06:56:22.618Z,98059.44
2023-04-18T06:59:25.790Z,98062.78
2023-04-18T07:02:28.875Z,98070.69
2023-04-18T07:05:31.727Z,98072.63
2023-04-18T07:08:34.953Z,98073.34
2023-04-18T07:11:37.976Z,98070.00
2023-04-18T07:14:40.738Z,98071.66
2023-04-18T07:17:43.620Z,98070.78
2023-04-18T07:20:46.424Z,98074.97
2023-04-18T07:23:49.119Z,98072.34
2023-04-18T07:26:54.787Z,98076.66
2023-04-18T07:29:58.167Z,98079.28
2023-04-18T07:33:01.188Z,98081.53
2023-04-18T07:36:04.152Z,98076.56
2023-04-18T07:39:07.428Z,98085.16
2023-04-18T07:42:11.647Z,98087.19
2023-04-18T07:45:15.806Z,98093.81
2023-04-18T07:48:18.610Z,98098.59
2023-04-18T07:51:22.409Z,98094.78
2023-04-18T07:54:25.164Z,98094.63
2023-04-18T07:57:27.813Z,98095.19
2023-04-18T08:00:33.222Z,98103.25
2023-04-18T08:03:37.445Z,98099.59
2023-04-18T08:06:40.279Z,98107.34
2023-04-18T08:09:42.933Z,98102.91
2023-04-18T08:12:46.040Z,98105.59
2023-04-18T08:15:49.041Z,98112.78
2023-04-18T08:18:52.048Z,98102.69
2023-04-18T08:21:55.454Z,98103.34
2023-04-18T08:25:05.578Z,98107.25
2023-04-18T08:28:09.199Z,98109.06
2023-04-18T08:31:13.445Z,98110.66
2023-04-18T08:34:16.317Z,98102.22
2023-04-18T08:37:19.184Z,98107.78
2023-04-18T08:40:22.119Z,98115.28
2023-04-18T08:43:25.690Z,98109.78
2023-04-18T08:46:30.312Z,98119.28
2023-04-18T08:49:33.190Z,98122.22
2023-04-18T08:52:36.895Z,98123.31
2023-04-18T08:55:41.158Z,98120.50
2023-04-18T08:58:45.502Z,98117.13
2023-04-18T09:02:01.787Z,98126.22
2023-04-18T09:05:12.280Z,98117.28
2023-04-18T09:08:33.432Z,98119.13
2023-04-18T09:11:36.163Z,98122.50
2023-04-18T09:14:43.239Z,98124.78
2023-04-18T09:17:53.603Z,98123.28
2023-04-18T09:20:57.118Z,98119.47
2023-04-18T09:24:18.601Z,98122.72
2023-04-18T09:27:22.726Z,98119.94
2023-04-18T09:30:37.166Z,98117.50
2023-04-18T09:33:43.359Z,98120.38
2023-04-18T09:36:46.100Z,98118.25
2023-04-18T09:39:50.258Z,98122.22
2023-04-18T09:42:54.755Z,98121.06
2023-04-18T09:45:57.487Z,98124.69
2023-04-18T09:49:00.158Z,98127.91
2023-04-18T09:52:04.993Z,98121.94
2023-04-18T09:55:13.258Z,98127.91
2023-04-18T09:58:16.858Z,98125.84
2023-04-18T10:01:19.864Z,98118.91
2023-04-18T10:04:22.799Z,98116.03
2023-04-18T10:07:26.580Z,98126.00
2023-04-18T10:10:29.815Z,98120.72
2023-04-18T10:13:35.011Z,98117.25
2023-04-18T10:16:38.523Z,98115.34
2023-04-18T10:19:42.296Z,98113.44
2023-04-18T10:22:45.145Z,98106.91
2023-04-18T10:25:48.990Z,98097.38
2023-04-18T10:28:57.240Z,98091.69
2023-04-18T10:32:07.025Z,98090.19
2023-04-18T10:35:11.356Z,98089.47
2023-04-18T10:38:17.744Z,98086.22
2023-04-18T10:41:27.504Z,98082.88
2023-04-18T10:44:30.321Z,98080.66
2023-04-18T10:47:33.561Z,98068.34
2023-04-18T10:51:14.843Z,98069.34
2023-04-18T10:54:28.808Z,98073.59
2023-04-18T10:57:39.248Z,98068.34
2023-04-18T11:00:42.225Z,98068.09
2023-04-18T11:03:45.265Z,98075.38
2023-04-18T11:06:55.212Z,98066.03
2023-04-18T11:09:58.076Z,98074.66
2023-04-18T11:13:04.879Z,98066.03
2023-04-18T11:16:08.285Z,98072.09
2023-04-18T11:19:21.684Z,98068.66
2023-04-18T11:22:24.504Z,98072.88
2023-04-18T11:25:29.726Z,98082.28
2023-04-18T11:28:33.221Z,98085.31
2023-04-18T11:31:38.614Z,98082.72
2023-04-18T11:34:41.583Z,98087.88
2023-04-18T11:37:47.642Z,98080.50
2023-04-18T11:40:51.405Z,98076.78
2023-04-18T11:43:54.366Z,98076.94
2023-04-18T11:46:58.102Z,98080.16
2023-04-18T11:50:02.739Z,98086.31
2023-04-18T11:53:05.591Z,98081.41
2023-04-18T11:56:08.372Z,98075.56
2023-04-18T11:59:11.547Z,98078.41
2023-04-18T12:02:16.827Z,98078.72
2023-04-18T12:05:28.086Z,98082.22
2023-04-18T12:08:32.591Z,98088.81
2023-04-18T12:11:35.341Z,98089.59
2023-04-18T12:14:38.074Z,98082.66
2023-04-18T12:17:48.962Z,98087.19
2023-04-18T12:20:54.432Z,98074.03
2023-04-18T12:23:59.016Z,98069.00
2023-04-18T12:27:02.174Z,98072.19
2023-04-18T12:30:05.411Z,98074.50
2023-04-18T12:33:09.648Z,98064.47
2023-04-18T12:36:12.409Z,98072.94
2023-04-18T12:39:15.284Z,98074.97
2023-04-18T12:42:18.043Z,98078.69
2023-04-18T12:45:22.154Z,98074.63
2023-04-18T12:48:24.939Z,98068.84
2023-04-18T12:51:28.237Z,98067.59
2023-04-18T12:54:31.091Z,98073.28
2023-04-18T12:57:34.222Z,98069.28
2023-04-18T13:00:39.633Z,98071.13
2023-04-18T13:03:42.498Z,98069.66
2023-04-18T13:06:46.215Z,98064.47
2023-04-18T13:09:49.034Z,98064.06
2023-04-18T13:12:53.210Z,98077.50
2023-04-18T13:15:56.170Z,98067.84
2023-04-18T13:18:59.169Z,98061.31
2023-04-18T13:22:02.225Z,98067.09
2023-04-18T13:25:06.232Z,98066.81
2023-04-18T13:28:09.085Z,98062.38
2023-04-18T13:31:12.016Z,98065.25
2023-04-18T13:34:14.823Z,98069.06
2023-04-18T13:37:17.976Z,98069.97
2023-04-18T13:40:21.153Z,98073.19
2023-04-18T13:43:23.960Z,98073.53
2023-04-18T13:46:29.517Z,98072.25
2023-04-18T13:49:36.705Z,98072.19
2023-04-18T13:52:39.643Z,98066.63
2023-04-18T13:55:43.029Z,98072.09
2023-04-18T13:58:45.877Z,98072.91
2023-04-18T14:01:49.718Z,98078.31
2023-04-18T14:04:54.663Z,98081.69
2023-04-18T14:08:02.780Z,98080.06
2023-04-18T14:11:05.836Z,98078.31
2023-04-18T14:14:08.641Z,98080.41
2023-04-18T14:17:11.738Z,98074.91
2023-04-18T14:20:20.914Z,98071.72
2023-04-18T14:23:23.910Z,98067.72
2023-04-18T14:26:26.752Z,98064.38
2023-04-18T14:29:29.684Z,98062.97
2023-04-18T14:32:32.887Z,98074.78
2023-04-18T14:35:35.706Z,98078.16
2023-04-18T14:38:42.576Z,98072.81
2023-04-18T14:41:46.151Z,98067.16
2023-04-18T14:44:49.131Z,98068.91
2023-04-18T14:47:52.032Z,98063.63
2023-04-18T14:50:59.587Z,98063.00
2023-04-18T14:54:02.481Z,98068.47
2023-04-18T14:57:05.292Z,98064.25
2023-04-18T15:00:11.545Z,98058.25
2023-04-18T15:03:14.682Z,98051.38
2023-04-18T15:06:20.298Z,98045.25
2023-04-18T15:09:22.986Z,98069.38
2023-04-18T15:12:26.108Z,98055.03
2023-04-18T15:15:30.881Z,98066.59
2023-04-18T15:18:34.029Z,98054.16
2023-04-18T15:21:37.369Z,98067.72
2023-04-18T15:24:40.336Z,98052.44
2023-04-18T15:27:43.671Z,98062.09
2023-04-18T15:30:46.843Z,98053.78
2023-04-18T15:33:52.091Z,98065.03
2023-04-18T15:36:55.215Z,98061.50
2023-04-18T15:39:57.925Z,98072.00
2023-04-18T15:43:00.859Z,98077.47
2023-04-18T15:46:04.527Z,98078.94
2023-04-18T15:49:07.582Z,98077.22
2023-04-18T15:52:10.343Z,98082.16
2023-04-18T15:55:13.892Z,98089.28
2023-04-18T15:58:17.191Z,98079.59
2023-04-18T16:01:21.198Z,98087.34
2023-04-18T16:04:24.874Z,98075.75
2023-04-18T16:07:27.679Z,98070.81
2023-04-18T16:10:30.596Z,98074.47
2023-04-18T16:13:33.615Z,98080.78
2023-04-18T16:16:36.708Z,98079.38
2023-04-18T16:19:41.286Z,98077.84
2023-04-18T16:22:44.112Z,98076.22
2023-04-18T16:25:47.171Z,98096.25
2023-04-18T16:28:49.944Z,98090.16
2023-04-18T16:31:53.309Z,98107.25
2023-04-18T16:34:56.611Z,98124.00
2023-04-18T16:37:59.475Z,98116.28
2023-04-18T16:41:02.974Z,98129.25
2023-04-18T16:44:05.954Z,98125.69
2023-04-18T16:47:21.386Z,98127.84
2023-04-18T16:50:25.247Z,98121.44
2023-04-18T16:53:28.189Z,98132.75
2023-04-18T16:56:31.088Z,98141.00
2023-04-18T16:59:35.106Z,98146.66
2023-04-18T17:02:39.979Z,98139.22
2023-04-18T17:05:42.828Z,98137.69
2023-04-18T17:08:46.142Z,98143.22
2023-04-18T17:11:49.366Z,98161.06
2023-04-18T17:14:52.038Z,98163.09
2023-04-18T17:17:56.731Z,98170.19
2023-04-18T17:20:59.551Z,98165.88
2023-04-18T17:24:04.209Z,98170.19
2023-04-18T17:27:06.912Z,98173.16
2023-04-18T17:30:10.456Z,98177.09
2023-04-18T17:33:13.239Z,98178.25
2023-04-18T17:36:16.204Z,98180.78
2023-04-18T17:39:19.054Z,98181.78
2023-04-18T17:42:21.987Z,98178.97
2023-04-18T17:45:24.881Z,98175.50
2023-04-18T17:48:27.663Z,98189.06
2023-04-18T17:51:31.319Z,98194.81
2023-04-18T17:54:34.717Z,98200.25
2023-04-18T17:57:38.003Z,98194.81
2023-04-18T18:00:41.363Z,98197.78
2023-04-18T18:03:44.993Z,98199.25
2023-04-18T18:06:57.641Z,98208.63
2023-04-18T18:10:01.371Z,98207.97
2023-04-18T18:13:04.608Z,98222.25
2023-04-18T18:16:08.292Z,98218.47
2023-04-18T18:19:11.249Z,98218.03
2023-04-18T18:22:14.102Z,98234.94
2023-04-18T18:25:17.094Z,98233.13
2023-04-18T18:28:20.355Z,98228.16
2023-04-18T18:31:25.170Z,98233.13
2023-04-18T18:34:30.279Z,98241.53
2023-04-18T18:37:33.336Z,98246.03
2023-04-18T18:40:36.124Z,98251.97
2023-04-18T18:43:38.991Z,98240.69
2023-04-18T18:46:43.157Z,98248.56
2023-04-18T18:49:46.215Z,98241.66
2023-04-18T18:52:49.078Z,98239.00
2023-04-18T18:55:51.959Z,98249.06
2023-04-18T18:58:57.681Z,98258.53
2023-04-18T19:02:00.921Z,98257.41
2023-04-18T19:05:04.444Z,98268.69
2023-04-18T19:08:07.380Z,98250.94
2023-04-18T19:11:10.693Z,98265.25
2023-04-18T19:14:14.129Z,98268.88
2023-04-18T19:17:22.292Z,98264.56
2023-04-18T19:20:26.963Z,98258.16
2023-04-18T19:23:31.609Z,98261.59
2023-04-18T19:26:34.471Z,98264.22
2023-04-18T19:29:37.289Z,98269.63
2023-04-18T19:32:40.403Z,98272.81
2023-04-18T19:35:43.671Z,98266.22
2023-04-18T19:38:46.519Z,98265.91
2023-04-18T19:41:49.213Z,98264.56
2023-04-18T19:44:51.968Z,98267.38
2023-04-18T19:47:54.847Z,98276.09
2023-04-18T19:50:57.837Z,98262.59
2023-04-18T19:54:00.834Z,98269.19
2023-04-18T19:57:04.972Z,98264.94
2023-04-18T20:00:09.679Z,98279.28
2023-04-18T20:03:17.312Z,98258.66
2023-04-18T20:06:20.533Z,98268.88
2023-04-18T20:09:23.563Z,98261.34
2023-04-18T20:12:26.733Z,98269.09
2023-04-18T20:15:30.751Z,98266.94
2023-04-18T20:18:36.211Z,98268.25
2023-04-18T20:21:38.977Z,98268.81
2023-04-18T20:24:41.916Z,98269.81
2023-04-18T20:27:44.733Z,98265.84
2023-04-18T20:30:48.325Z,98262.22
2023-04-18T20:33:51.195Z,98259.16
2023-04-18T20:36:54.127Z,98261.59
2023-04-18T20:39:59.031Z,98256.00
2023-04-18T20:43:03.522Z,98271.63
2023-04-18T20:46:07.910Z,98269.63
2023-04-18T20:49:11.199Z,98271.19
2023-04-18T20:52:14.749Z,98277.06
2023-04-18T20:55:17.702Z,98266.47
2023-04-18T20:58:27.689Z,98264.47
2023-04-18T21:01:31.363Z,98267.28
2023-04-18T21:04:34.364Z,98271.41
2023-04-18T21:07:37.530Z,98260.38
2023-04-18T21:10:40.647Z,98260.19
2023-04-18T21:13:43.791Z,98258.25
2023-04-18T21:16:46.581Z,98255.31
2023-04-18T21:19:52.103Z,98249.44
2023-04-18T21:22:54.942Z,98245.28
2023-04-18T21:25:58.049Z,98246.63
2023-04-18T21:29:02.315Z,98240.22
2023-04-18T21:32:05.376Z,98241.78
2023-04-18T21:35:08.737Z,98237.72
2023-04-18T21:38:11.578Z,98231.53
2023-04-18T21:41:16.115Z,98233.44
2023-04-18T21:44:19.261Z,98234.06
2023-04-18T21:47:22.342Z,98238.03
2023-04-18T21:50:25.490Z,98235.50
2023-04-18T21:53:28.168Z,98227.09
2023-04-18T21:56:31.005Z,98221.84
2023-04-18T21:59:33.692Z,98231.53
2023-04-18T22:02:36.674Z,98228.47
2023-04-18T22:05:40.395Z,98234.66
2023-04-18T22:08:43.427Z,98222.13
2023-04-18T22:11:46.658Z,98229.84
2023-04-18T22:14:49.266Z,98224.16
2023-04-18T22:17:52.328Z,98229.50
2023-04-18T22:20:57.850Z,98224.56
2023-04-18T22:24:00.990Z,98225.31
2023-04-18T22:27:06.234Z,98224.84
2023-04-18T22:30:09.551Z,98222.00
2023-04-18T22:33:12.330Z,98226.22
2023-04-18T22:36:15.319Z,98219.63
2023-04-18T22:39:18.264Z,98217.03
2023-04-18T22:42:21.066Z,98214.75
2023-04-18T22:45:23.857Z,98210.56
2023-04-18T22:48:26.666Z,98214.59
2023-04-18T22:51:29.366Z,98212.97
2023-04-18T22:54:32.167Z,98211.91
2023-04-18T22:57:35.006Z,98216.31
2023-04-18T23:00:37.747Z,98223.25
2023-04-18T23:03:40.869Z,98211.81
2023-04-18T23:06:43.561Z,98214.16
2023-04-18T23:09:46.374Z,98210.81
2023-04-18T23:12:49.070Z,98200.25
2023-04-18T23:15:51.899Z,98193.41
2023-04-18T23:18:54.624Z,98185.19
2023-04-18T23:21:57.412Z,98194.09
2023-04-18T23:25:00.073Z,98192.72
2023-04-18T23:28:02.991Z,98188.69
2023-04-18T23:31:06.590Z,98184.78
2023-04-18T23:34:10.468Z,98181.19
2023-04-18T23:37:13.264Z,98170.91
2023-04-18T23:40:16.044Z,98170.31
2023-04-18T23:43:18.883Z,98164.44
2023-04-18T23:46:21.741Z,98159.41
2023-04-18T23:49:24.614Z,98154.44
2023-04-18T23:52:27.303Z,98156.56
2023-04-18T23:55:30.075Z,98148.66
2023-04-18T23:58:32.846Z,98147.25
